createdAt,value
2018-10-07T00:00:04.551Z,14.00
2018-10-07T00:05:00.631Z,14.00
2018-10-07T00:07:28.784Z,14.00
2018-10-07T00:09:56.945Z,13.90
2018-10-07T00:12:25.107Z,13.90
2018-10-07T00:24:44.999Z,13.90
2018-10-07T00:27:13.151Z,13.90
2018-10-07T00:29:41.304Z,13.90
2018-10-07T00:34:44.546Z,13.70
2018-10-07T00:37:12.696Z,13.60
2018-10-07T00:39:40.910Z,13.60
2018-10-07T00:42:09.081Z,13.60
2018-10-07T00:49:33.143Z,13.50
2018-10-07T00:56:57.234Z,13.60
2018-10-07T00:59:25.367Z,13.60
2018-10-07T01:01:53.520Z,13.60
2018-10-07T01:04:21.654Z,13.60
2018-10-07T01:06:49.827Z,13.50
2018-10-07T01:09:17.958Z,13.60
2018-10-07T01:11:46.103Z,13.50
2018-10-07T01:14:14.264Z,13.50
2018-10-07T01:19:10.329Z,13.50
2018-10-07T01:21:38.484Z,13.50
2018-10-07T01:24:06.647Z,13.50
2018-10-07T01:26:34.807Z,13.40
2018-10-07T01:31:30.871Z,13.40
2018-10-07T01:33:59.055Z,13.30
2018-10-07T01:36:27.199Z,13.30
2018-10-07T01:43:51.197Z,13.20
2018-10-07T01:53:43.155Z,13.00
2018-10-07T01:56:11.315Z,12.90
2018-10-07T01:58:39.450Z,12.80
2018-10-07T02:03:35.593Z,12.70
2018-10-07T02:06:03.746Z,12.70
2018-10-07T02:08:31.901Z,12.70
2018-10-07T02:13:27.975Z,12.70
2018-10-07T02:15:56.195Z,12.70
2018-10-07T02:18:24.329Z,12.70
2018-10-07T02:20:52.478Z,12.60
2018-10-07T02:23:20.620Z,12.30
2018-10-07T02:25:48.750Z,12.10
2018-10-07T02:28:16.898Z,12.00
2018-10-07T02:30:45.069Z,12.00
2018-10-07T02:33:13.215Z,12.00
2018-10-07T02:35:41.350Z,12.10
2018-10-07T02:38:09.484Z,12.10
2018-10-07T02:40:39.960Z,12.10
2018-10-07T02:43:08.111Z,12.10
2018-10-07T02:45:36.263Z,12.00
2018-10-07T02:48:04.398Z,11.80
2018-10-07T02:50:32.547Z,11.70
2018-10-07T02:53:00.688Z,11.60
2018-10-07T02:55:31.045Z,11.60
2018-10-07T02:58:00.951Z,11.60
2018-10-07T03:00:29.099Z,11.50
2018-10-07T03:05:25.175Z,11.60
2018-10-07T03:07:53.311Z,11.70
2018-10-07T03:10:21.480Z,11.80
2018-10-07T03:12:49.613Z,11.80
2018-10-07T03:15:17.779Z,11.90
2018-10-07T03:20:13.883Z,12.00
2018-10-07T03:22:42.027Z,12.00
2018-10-07T03:27:38.088Z,12.20
2018-10-07T03:30:06.249Z,12.20
2018-10-07T03:32:34.385Z,12.30
2018-10-07T03:35:02.531Z,12.30
2018-10-07T03:37:30.688Z,12.30
2018-10-07T03:39:58.829Z,12.20
2018-10-07T03:42:26.999Z,12.10
2018-10-07T03:54:46.835Z,11.90
2018-10-07T03:57:14.986Z,11.90
2018-10-07T03:59:43.130Z,11.90
2018-10-07T04:02:11.289Z,11.80
2018-10-07T04:04:39.454Z,11.70
2018-10-07T04:07:07.601Z,11.80
2018-10-07T04:09:35.740Z,11.80
2018-10-07T04:12:03.926Z,11.80
2018-10-07T04:14:32.099Z,11.80
2018-10-07T04:17:00.322Z,11.80
2018-10-07T04:21:57.470Z,11.50
2018-10-07T04:26:55.078Z,11.30
2018-10-07T04:31:51.159Z,11.20
2018-10-07T04:36:47.263Z,11.10
2018-10-07T04:39:15.411Z,11.10
2018-10-07T04:41:44.286Z,11.00
2018-10-07T04:44:12.445Z,11.10
2018-10-07T04:46:40.678Z,11.10
2018-10-07T04:49:08.851Z,11.10
2018-10-07T04:51:37.150Z,11.10
2018-10-07T05:01:29.359Z,10.90
2018-10-07T05:03:58.111Z,10.90
2018-10-07T05:06:28.368Z,10.90
2018-10-07T05:08:56.620Z,10.90
2018-10-07T05:11:27.383Z,10.90
2018-10-07T05:13:56.379Z,10.90
2018-10-07T05:16:28.207Z,10.80
2018-10-07T05:18:56.369Z,10.80
2018-10-07T05:21:24.545Z,10.80
2018-10-07T05:23:52.936Z,10.80
2018-10-07T05:28:49.096Z,10.90
2018-10-07T05:31:17.258Z,10.90
2018-10-07T05:33:45.427Z,10.80
2018-10-07T05:36:13.595Z,10.80
2018-10-07T05:41:09.746Z,10.60
2018-10-07T05:43:37.965Z,10.60
2018-10-07T05:46:06.140Z,10.50
2018-10-07T05:51:02.365Z,10.40
2018-10-07T05:53:30.494Z,10.30
2018-10-07T05:55:58.655Z,10.20
2018-10-07T05:58:27.459Z,10.10
2018-10-07T06:00:58.903Z,9.90
2018-10-07T06:03:34.599Z,9.90
2018-10-07T06:06:02.747Z,9.90
2018-10-07T06:08:30.947Z,9.90
2018-10-07T06:13:27.066Z,9.90
2018-10-07T06:23:19.010Z,10.10
2018-10-07T06:30:43.060Z,10.10
2018-10-07T06:35:39.179Z,10.20
2018-10-07T06:38:07.346Z,10.20
2018-10-07T06:40:35.539Z,10.30
2018-10-07T06:45:31.711Z,10.50
2018-10-07T06:47:59.859Z,10.60
2018-10-07T06:50:28.106Z,10.70
2018-10-07T06:52:56.276Z,10.90
2018-10-07T06:55:24.416Z,11.00
2018-10-07T06:57:52.571Z,11.20
2018-10-07T07:00:20.730Z,11.30
2018-10-07T07:02:48.914Z,11.40
2018-10-07T07:05:17.088Z,11.50
2018-10-07T07:07:45.245Z,11.50
2018-10-07T07:10:13.438Z,11.60
2018-10-07T07:12:41.611Z,11.70
2018-10-07T07:15:09.783Z,11.80
2018-10-07T07:17:37.973Z,11.90
2018-10-07T07:20:06.169Z,12.10
2018-10-07T07:22:34.325Z,12.20
2018-10-07T07:25:02.486Z,12.30
2018-10-07T07:29:58.572Z,12.50
2018-10-07T07:32:26.727Z,12.60
2018-10-07T07:34:54.907Z,12.70
2018-10-07T07:37:23.039Z,12.80
2018-10-07T07:39:51.199Z,12.90
2018-10-07T07:44:47.290Z,13.10
2018-10-07T07:47:15.441Z,13.20
2018-10-07T07:49:43.599Z,13.30
2018-10-07T07:52:11.792Z,13.40
2018-10-07T07:54:40.017Z,13.50
2018-10-07T07:59:36.279Z,13.70
2018-10-07T08:02:04.431Z,13.70
2018-10-07T08:04:32.582Z,13.80
2018-10-07T08:07:00.714Z,13.90
2018-10-07T08:09:28.876Z,14.00
2018-10-07T08:11:57.023Z,14.10
2018-10-07T08:16:53.113Z,14.30
2018-10-07T08:26:45.181Z,14.70
2018-10-07T08:29:13.321Z,14.80
2018-10-07T08:31:41.464Z,14.90
2018-10-07T08:36:37.535Z,15.00
2018-10-07T08:44:02.839Z,15.20
2018-10-07T08:51:26.793Z,15.40
2018-10-07T08:53:54.985Z,15.40
2018-10-07T08:56:23.185Z,15.50
2018-10-07T09:01:19.249Z,15.70
2018-10-07T09:03:47.414Z,15.80
2018-10-07T09:06:15.566Z,15.90
2018-10-07T09:08:43.737Z,15.90
2018-10-07T09:11:11.939Z,16.00
2018-10-07T09:13:40.096Z,16.00
2018-10-07T09:16:08.255Z,16.00
2018-10-07T09:18:36.395Z,16.10
2018-10-07T09:21:04.583Z,16.20
2018-10-07T09:23:33.118Z,16.30
2018-10-07T09:26:01.317Z,16.40
2018-10-07T09:30:57.402Z,16.50
2018-10-07T09:33:25.575Z,16.60
2018-10-07T09:43:17.676Z,17.50
2018-10-07T09:45:45.869Z,17.70
2018-10-07T09:50:42.180Z,18.10
2018-10-07T09:53:10.362Z,18.30
2018-10-07T09:55:38.519Z,18.40
2018-10-07T09:58:06.722Z,18.50
2018-10-07T10:00:40.533Z,18.50
2018-10-07T10:05:37.788Z,18.70
2018-10-07T10:08:06.124Z,18.70
2018-10-07T10:10:34.283Z,18.70
2018-10-07T10:13:02.438Z,18.60
2018-10-07T10:15:30.590Z,18.50
2018-10-07T10:18:06.369Z,18.40
2018-10-07T10:20:47.798Z,18.30
2018-10-07T10:23:23.679Z,18.20
2018-10-07T10:26:26.549Z,18.10
2018-10-07T10:29:10.007Z,18.20
2018-10-07T10:34:30.347Z,18.30
2018-10-07T10:37:02.933Z,18.40
2018-10-07T10:40:10.329Z,18.50
2018-10-07T10:42:42.871Z,18.50
2018-10-07T10:48:09.003Z,18.80
2018-10-07T10:50:41.671Z,18.90
2018-10-07T10:53:15.962Z,19.00
2018-10-07T10:55:51.299Z,19.10
2018-10-07T10:58:29.095Z,19.10
2018-10-07T11:00:58.331Z,18.90
2018-10-07T11:03:38.981Z,18.90
2018-10-07T11:06:17.280Z,19.00
2018-10-07T11:09:11.563Z,19.00
2018-10-07T11:11:49.856Z,19.10
2018-10-07T11:14:32.272Z,19.20
2018-10-07T11:17:12.131Z,19.20
2018-10-07T11:20:02.711Z,19.10
2018-10-07T11:22:44.574Z,19.20
2018-10-07T11:27:25.857Z,19.20
2018-10-07T11:30:02.178Z,19.30
2018-10-07T11:34:46.899Z,19.30
2018-10-07T11:37:24.941Z,19.40
2018-10-07T11:41:17.190Z,19.40
2018-10-07T11:43:52.537Z,19.50
2018-10-07T11:47:02.655Z,19.50
2018-10-07T11:49:43.686Z,19.50
2018-10-07T11:52:24.841Z,19.50
2018-10-07T11:54:52.937Z,19.50
2018-10-07T11:57:21.089Z,19.50
2018-10-07T11:59:49.264Z,19.50
2018-10-07T12:02:17.483Z,19.50
2018-10-07T12:04:45.555Z,19.60
2018-10-07T12:09:41.660Z,19.60
2018-10-07T12:12:09.817Z,19.60
2018-10-07T12:14:38.032Z,19.80
2018-10-07T12:17:06.272Z,19.70
2018-10-07T12:19:34.546Z,19.80
2018-10-07T12:24:30.666Z,19.80
2018-10-07T12:26:58.899Z,19.90
2018-10-07T12:29:27.075Z,20.00
2018-10-07T12:31:55.339Z,20.00
2018-10-07T12:34:23.510Z,20.10
2018-10-07T12:36:51.756Z,20.10
2018-10-07T12:39:19.850Z,20.10
2018-10-07T12:41:48.312Z,20.10
2018-10-07T12:44:16.484Z,20.20
2018-10-07T12:46:44.663Z,20.20
2018-10-07T12:49:12.839Z,20.30
2018-10-07T12:51:41.114Z,20.30
2018-10-07T12:56:37.289Z,20.40
2018-10-07T13:01:33.720Z,20.50
2018-10-07T13:04:01.849Z,20.40
2018-10-07T13:06:30.084Z,20.40
2018-10-07T13:08:58.238Z,20.40
2018-10-07T13:13:54.298Z,20.40
2018-10-07T13:16:22.554Z,20.40
2018-10-07T13:18:50.762Z,20.40
2018-10-07T13:21:18.914Z,20.50
2018-10-07T13:23:47.295Z,20.60
2018-10-07T13:33:39.431Z,20.60
2018-10-07T13:36:07.598Z,20.50
2018-10-07T13:38:35.760Z,20.50
2018-10-07T13:41:03.983Z,20.50
2018-10-07T13:43:32.160Z,20.40
2018-10-07T13:46:00.382Z,20.30
2018-10-07T13:48:28.546Z,20.50
2018-10-07T13:50:56.701Z,20.50
2018-10-07T13:55:52.769Z,20.50
2018-10-07T13:58:20.930Z,20.40
2018-10-07T14:00:49.087Z,20.40
2018-10-07T14:05:45.159Z,20.30
2018-10-07T14:08:13.339Z,20.30
2018-10-07T14:10:41.511Z,20.40
2018-10-07T14:15:37.627Z,20.50
2018-10-07T14:18:05.996Z,20.50
2018-10-07T14:20:34.141Z,20.50
2018-10-07T14:23:02.367Z,20.50
2018-10-07T14:25:30.544Z,20.50
2018-10-07T14:27:58.734Z,20.40
2018-10-07T14:32:54.838Z,20.50
2018-10-07T14:35:22.983Z,20.50
2018-10-07T14:37:51.131Z,20.40
2018-10-07T14:40:19.277Z,20.40
2018-10-07T14:42:47.426Z,20.40
2018-10-07T14:45:15.615Z,20.30
2018-10-07T14:47:43.787Z,20.30
2018-10-07T14:50:11.938Z,20.20
2018-10-07T14:52:40.115Z,20.30
2018-10-07T14:55:08.349Z,20.20
2018-10-07T14:57:36.435Z,20.20
2018-10-07T15:00:04.678Z,20.20
2018-10-07T15:02:32.857Z,20.20
2018-10-07T15:05:01.042Z,20.10
2018-10-07T15:07:29.200Z,20.10
2018-10-07T15:22:17.060Z,19.80
2018-10-07T15:27:13.138Z,19.80
2018-10-07T15:29:41.365Z,19.80
2018-10-07T15:32:09.470Z,19.60
2018-10-07T15:34:37.638Z,19.70
2018-10-07T15:37:05.793Z,19.60
2018-10-07T15:42:01.910Z,19.60
2018-10-07T15:44:30.076Z,19.50
2018-10-07T15:46:58.271Z,19.50
2018-10-07T15:49:26.435Z,19.40
2018-10-07T15:51:54.595Z,19.30
2018-10-07T15:54:22.793Z,19.30
2018-10-07T15:56:51.018Z,19.20
2018-10-07T15:59:19.103Z,19.20
2018-10-07T16:01:47.240Z,19.10
2018-10-07T16:04:15.418Z,19.10
2018-10-07T16:06:43.581Z,19.00
2018-10-07T16:09:11.739Z,19.00
2018-10-07T16:11:39.873Z,18.90
2018-10-07T16:14:08.069Z,18.90
2018-10-07T16:16:36.220Z,18.80
2018-10-07T16:19:04.469Z,18.70
2018-10-07T16:21:32.640Z,18.70
2018-10-07T16:24:00.790Z,18.60
2018-10-07T16:26:29.007Z,18.50
2018-10-07T16:28:57.179Z,18.50
2018-10-07T16:31:30.939Z,18.40
2018-10-07T16:33:59.138Z,18.30
2018-10-07T16:36:27.300Z,18.20
2018-10-07T16:38:55.530Z,18.10
2018-10-07T16:41:23.703Z,18.00
2018-10-07T16:43:51.875Z,18.00
2018-10-07T16:46:20.035Z,17.90
2018-10-07T16:48:48.182Z,17.80
2018-10-07T16:51:16.350Z,17.70
2018-10-07T16:53:44.537Z,17.60
2018-10-07T16:56:12.687Z,17.60
2018-10-07T16:58:40.890Z,17.50
2018-10-07T17:01:09.075Z,17.40
2018-10-07T17:03:37.228Z,17.30
2018-10-07T17:06:05.417Z,17.20
2018-10-07T17:08:33.575Z,17.20
2018-10-07T17:11:01.771Z,17.10
2018-10-07T17:13:30.811Z,17.00
2018-10-07T17:18:26.795Z,16.90
2018-10-07T17:25:50.820Z,16.70
2018-10-07T17:28:18.984Z,16.50
2018-10-07T17:30:47.160Z,16.50
2018-10-07T17:33:15.331Z,16.50
2018-10-07T17:35:43.505Z,16.40
2018-10-07T17:38:11.694Z,16.30
2018-10-07T17:45:35.798Z,16.10
2018-10-07T17:48:04.029Z,16.00
2018-10-07T17:53:00.210Z,15.90
2018-10-07T17:55:28.485Z,15.90
2018-10-07T18:00:24.633Z,15.80
2018-10-07T18:05:20.747Z,15.80
2018-10-07T18:07:48.925Z,15.70
2018-10-07T18:10:17.198Z,15.60
2018-10-07T18:12:45.395Z,15.60
2018-10-07T18:15:13.777Z,15.50
2018-10-07T18:17:42.096Z,15.50
2018-10-07T18:20:10.263Z,15.50
2018-10-07T18:22:38.473Z,15.40
2018-10-07T18:25:06.663Z,15.30
2018-10-07T18:27:34.845Z,15.30
2018-10-07T18:30:03.090Z,15.20
2018-10-07T18:32:31.287Z,15.10
2018-10-07T18:34:59.501Z,15.10
2018-10-07T18:37:27.678Z,15.00
2018-10-07T18:39:55.876Z,15.00
2018-10-07T18:42:24.035Z,15.00
2018-10-07T18:44:52.243Z,15.00
2018-10-07T18:47:20.417Z,15.00
2018-10-07T18:52:16.576Z,14.90
2018-10-07T18:54:44.820Z,14.90
2018-10-07T18:57:12.913Z,14.80
2018-10-07T18:59:41.087Z,14.80
2018-10-07T19:02:09.263Z,14.80
2018-10-07T19:04:37.434Z,14.80
2018-10-07T19:07:05.624Z,14.70
2018-10-07T19:09:33.790Z,14.70
2018-10-07T19:12:01.966Z,14.70
2018-10-07T19:14:30.191Z,14.70
2018-10-07T19:16:58.364Z,14.60
2018-10-07T19:21:54.475Z,14.60
2018-10-07T19:24:28.900Z,14.50
2018-10-07T19:26:57.107Z,14.50
2018-10-07T19:29:25.315Z,14.40
2018-10-07T19:31:53.494Z,14.40
2018-10-07T19:34:21.684Z,14.30
2018-10-07T19:39:17.817Z,14.30
2018-10-07T19:41:46.016Z,14.20
2018-10-07T19:44:14.173Z,14.20
2018-10-07T19:56:35.111Z,14.00
2018-10-07T20:01:31.291Z,13.90
2018-10-07T20:04:00.574Z,13.80
2018-10-07T20:06:28.765Z,13.80
2018-10-07T20:08:56.925Z,13.70
2018-10-07T20:11:25.106Z,13.70
2018-10-07T20:13:53.273Z,13.70
2018-10-07T20:31:09.172Z,13.50
2018-10-07T20:33:37.461Z,13.50
2018-10-07T20:41:01.565Z,13.40
2018-10-07T20:43:29.744Z,13.30
2018-10-07T20:45:57.915Z,13.30
2018-10-07T20:48:26.085Z,13.30
2018-10-07T20:50:54.283Z,13.20
2018-10-07T20:53:22.540Z,13.10
2018-10-07T20:55:50.771Z,13.00
2018-10-07T20:58:19.618Z,12.90
2018-10-07T21:00:47.793Z,12.90
2018-10-07T21:03:15.964Z,12.80
2018-10-07T21:05:44.160Z,12.80
2018-10-07T21:08:12.349Z,12.80
2018-10-07T21:10:40.531Z,12.70
2018-10-07T21:13:08.692Z,12.70
2018-10-07T21:18:04.991Z,12.70
2018-10-07T21:27:57.857Z,12.60
2018-10-07T21:30:26.019Z,12.50
2018-10-07T21:32:54.171Z,12.50
2018-10-07T21:35:22.338Z,12.50
2018-10-07T21:40:18.450Z,12.40
2018-10-07T21:42:46.612Z,12.30
2018-10-07T21:45:14.753Z,12.30
2018-10-07T21:50:10.844Z,12.20
2018-10-07T21:52:39.004Z,12.20
2018-10-07T21:55:07.207Z,12.20
2018-10-07T22:02:31.445Z,12.10
2018-10-07T22:04:59.634Z,12.10
2018-10-07T22:07:27.810Z,12.00
2018-10-07T22:09:55.970Z,12.00
2018-10-07T22:12:24.158Z,12.00
2018-10-07T22:14:52.327Z,12.00
2018-10-07T22:17:20.513Z,11.90
2018-10-07T22:19:48.721Z,11.90
2018-10-07T22:22:16.848Z,11.90
2018-10-07T22:24:45.001Z,11.80
2018-10-07T22:27:13.247Z,11.80
2018-10-07T22:29:41.411Z,11.70
2018-10-07T22:32:09.579Z,11.70
2018-10-07T22:34:37.731Z,11.60
2018-10-07T22:37:05.905Z,11.60
2018-10-07T22:39:34.067Z,11.60
2018-10-07T22:42:02.216Z,11.50
2018-10-07T22:44:30.415Z,11.30
2018-10-07T22:46:58.604Z,11.10
2018-10-07T22:51:54.674Z,10.80
2018-10-07T22:54:22.841Z,10.70
2018-10-07T22:56:51.003Z,10.60
2018-10-07T22:59:19.182Z,10.50
2018-10-07T23:01:47.383Z,10.40
2018-10-07T23:04:15.677Z,10.40
2018-10-07T23:06:43.835Z,10.50
2018-10-07T23:09:12.996Z,10.50
2018-10-07T23:11:41.523Z,10.50
2018-10-07T23:16:37.688Z,10.40
2018-10-07T23:19:05.826Z,10.40
2018-10-07T23:21:33.978Z,10.30
2018-10-07T23:24:02.130Z,10.20
2018-10-07T23:26:30.324Z,10.10
2018-10-07T23:28:58.499Z,10.10
2018-10-07T23:31:26.659Z,10.20
2018-10-07T23:33:54.862Z,10.30
2018-10-07T23:36:23.098Z,10.40
2018-10-07T23:38:51.262Z,10.50
2018-10-07T23:41:19.426Z,10.50
2018-10-07T23:43:47.616Z,10.60
2018-10-07T23:46:15.786Z,10.60
2018-10-07T23:48:43.925Z,10.60
2018-10-07T23:51:12.087Z,10.60
2018-10-07T23:53:40.240Z,10.70
2018-10-07T23:56:08.391Z,10.70
2018-10-07T23:58:36.559Z,10.70
